Osorno, Chile
Current Conditions -  °F | °C
As of 10:32 AM on Thursday 30 Oct 2014 (Local Time) from SCTE Reporting Station
Scattered Clouds Scattered Clouds  
Wind Chill: 43°   Ceiling: Unl
Heat Index: 46°   Visibility: 6mi
Dew Point: 41°   Wind: 7mph
Humidity: 81%   Direction: 230°SW
Pressure: 30.03"   Gusts: NA
Location:  40.57°S, 73.16°W
Report Text: SCTE 301432Z 23006KT 9999 SCT023 08/05 Q1017 NOSIG
Loading
Personal Weather Stations






























Interactive Weather Map
Tropical Storm Tracking
New forecast layout! Learn more

10-Day Weather Forecast

Advertisements
Track Severe Weather on mobile